createdAt,value
2022-08-19T00:00:52.562Z,23.74
2022-08-19T00:03:56.515Z,23.51
2022-08-19T00:07:01.711Z,23.58
2022-08-19T00:10:10.800Z,23.67
2022-08-19T00:13:16.654Z,23.53
2022-08-19T00:16:25.352Z,23.10
2022-08-19T00:19:33.654Z,23.20
2022-08-19T00:22:38.019Z,23.26
2022-08-19T00:25:44.007Z,23.16
2022-08-19T00:28:53.547Z,22.89
2022-08-19T00:31:59.495Z,23.12
2022-08-19T00:35:03.418Z,23.17
2022-08-19T00:38:10.312Z,23.19
2022-08-19T00:41:23.337Z,23.05
2022-08-19T00:44:30.383Z,23.05
2022-08-19T00:47:35.390Z,23.10
2022-08-19T00:50:51.707Z,22.89
2022-08-19T00:53:57.948Z,22.80
2022-08-19T00:57:07.279Z,23.11
2022-08-19T01:00:15.742Z,22.99
2022-08-19T01:03:22.459Z,22.93
2022-08-19T01:06:26.691Z,23.07
2022-08-19T01:09:31.910Z,22.81
2022-08-19T01:12:38.443Z,22.98
2022-08-19T01:15:46.853Z,22.97
2022-08-19T01:18:52.168Z,22.97
2022-08-19T01:22:14.147Z,22.97
2022-08-19T01:25:29.092Z,22.95
2022-08-19T01:28:39.921Z,22.59
2022-08-19T01:31:45.336Z,22.52
2022-08-19T01:34:50.299Z,22.37
2022-08-19T01:38:00.380Z,22.46
2022-08-19T01:41:10.895Z,22.40
2022-08-19T01:44:19.371Z,22.54
2022-08-19T01:47:24.325Z,22.69
2022-08-19T01:50:28.695Z,22.64
2022-08-19T01:53:33.859Z,22.47
2022-08-19T01:56:42.044Z,22.34
2022-08-19T01:59:47.749Z,22.30
2022-08-19T02:02:52.838Z,22.03
2022-08-19T02:06:00.754Z,22.26
2022-08-19T02:09:07.335Z,22.15
2022-08-19T02:12:13.784Z,22.17
2022-08-19T02:15:20.113Z,22.26
2022-08-19T02:18:27.812Z,21.93
2022-08-19T02:21:32.611Z,22.11
2022-08-19T02:24:41.565Z,21.84
2022-08-19T02:27:47.298Z,21.51
2022-08-19T02:30:54.528Z,21.83
2022-08-19T02:33:59.183Z,21.87
2022-08-19T02:37:04.109Z,21.81
2022-08-19T02:40:12.546Z,22.00
2022-08-19T02:43:18.734Z,22.03
2022-08-19T02:46:25.777Z,21.75
2022-08-19T02:49:34.680Z,21.71
2022-08-19T02:52:40.091Z,21.90
2022-08-19T02:55:49.138Z,21.86
2022-08-19T02:58:56.090Z,22.05
2022-08-19T03:02:00.415Z,21.98
2022-08-19T03:05:06.704Z,21.83
2022-08-19T03:08:13.484Z,21.95
2022-08-19T03:11:19.267Z,21.88
2022-08-19T03:14:25.359Z,21.75
2022-08-19T03:17:29.318Z,21.54
2022-08-19T03:20:36.306Z,21.42
2022-08-19T03:23:40.654Z,21.22
2022-08-19T03:26:50.775Z,21.45
2022-08-19T03:29:57.853Z,21.30
2022-08-19T03:33:04.924Z,21.31
2022-08-19T03:36:11.868Z,21.34
2022-08-19T03:39:17.116Z,21.43
2022-08-19T03:42:38.424Z,21.62
2022-08-19T03:45:46.968Z,21.32
2022-08-19T03:48:55.255Z,21.46
2022-08-19T03:52:02.141Z,21.38
2022-08-19T03:55:06.655Z,21.17
2022-08-19T03:58:12.419Z,21.48
2022-08-19T04:01:21.277Z,21.57
2022-08-19T04:04:40.020Z,21.63
2022-08-19T04:07:44.792Z,21.79
2022-08-19T04:10:49.904Z,21.64
2022-08-19T04:13:55.806Z,21.78
2022-08-19T04:17:03.068Z,21.94
2022-08-19T04:20:07.323Z,21.67
2022-08-19T04:23:12.156Z,21.76
2022-08-19T04:26:21.187Z,21.56
2022-08-19T04:29:28.169Z,21.12
2022-08-19T04:32:33.972Z,21.47
2022-08-19T04:35:40.505Z,21.75
2022-08-19T04:38:46.978Z,22.03
2022-08-19T04:42:09.776Z,22.28
2022-08-19T04:45:18.005Z,22.37
2022-08-19T04:48:28.176Z,22.37
2022-08-19T04:51:32.749Z,22.13
2022-08-19T04:54:39.273Z,22.40
2022-08-19T04:57:43.624Z,22.60
2022-08-19T05:00:49.459Z,22.65
2022-08-19T05:03:55.093Z,22.67
2022-08-19T05:07:03.989Z,23.10
2022-08-19T05:10:08.675Z,23.51
2022-08-19T05:13:13.019Z,23.71
2022-08-19T05:16:21.978Z,23.87
2022-08-19T05:19:44.957Z,24.08
2022-08-19T05:22:51.483Z,24.19
2022-08-19T05:25:56.122Z,24.34
2022-08-19T05:29:00.432Z,24.59
2022-08-19T05:32:09.517Z,24.80
2022-08-19T05:35:16.886Z,24.43
2022-08-19T05:38:21.243Z,24.76
2022-08-19T05:41:31.663Z,24.88
2022-08-19T05:44:38.707Z,24.93
2022-08-19T05:47:45.515Z,24.71
2022-08-19T05:50:52.831Z,25.18
2022-08-19T05:53:56.616Z,25.53
2022-08-19T05:57:00.618Z,25.49
2022-08-19T06:00:09.712Z,25.26
2022-08-19T06:03:15.974Z,25.78
2022-08-19T06:06:21.950Z,25.92
2022-08-19T06:09:26.199Z,26.18
2022-08-19T06:12:32.924Z,26.09
2022-08-19T06:15:37.560Z,26.24
2022-08-19T06:18:41.294Z,26.65
2022-08-19T06:21:50.973Z,26.95
2022-08-19T06:24:55.151Z,27.31
2022-08-19T06:28:17.778Z,27.58
2022-08-19T06:31:24.897Z,27.85
2022-08-19T06:34:30.495Z,28.00
2022-08-19T06:37:36.308Z,28.19
2022-08-19T06:40:41.615Z,28.50
2022-08-19T06:43:46.676Z,28.72
2022-08-19T06:46:54.743Z,28.88
2022-08-19T06:50:05.422Z,29.29
2022-08-19T06:53:12.168Z,29.25
2022-08-19T06:56:17.559Z,29.66
2022-08-19T06:59:25.363Z,30.18
2022-08-19T07:02:30.618Z,30.44
2022-08-19T07:05:35.066Z,30.88
2022-08-19T07:08:44.589Z,31.20
2022-08-19T07:11:51.118Z,31.19
2022-08-19T07:14:55.179Z,31.29
2022-08-19T07:17:59.902Z,31.54
2022-08-19T07:21:09.470Z,31.91
2022-08-19T07:24:16.670Z,32.46
2022-08-19T07:27:24.298Z,32.49
2022-08-19T07:30:30.260Z,32.66
2022-08-19T07:33:38.128Z,33.25
2022-08-19T07:36:44.147Z,33.49
2022-08-19T07:39:50.298Z,33.79
2022-08-19T07:42:54.467Z,33.96
2022-08-19T07:45:59.651Z,34.17
2022-08-19T07:49:04.319Z,34.14
2022-08-19T07:52:12.690Z,34.24
2022-08-19T07:55:40.642Z,34.36
2022-08-19T07:58:47.831Z,34.63
2022-08-19T08:01:53.784Z,34.58
2022-08-19T08:05:15.725Z,34.88
2022-08-19T08:08:45.157Z,34.89
2022-08-19T08:11:56.517Z,34.92
2022-08-19T08:15:04.143Z,34.99
2022-08-19T08:18:17.372Z,34.93
2022-08-19T08:21:22.788Z,34.82
2022-08-19T08:24:29.096Z,34.52
2022-08-19T08:27:40.679Z,34.48
2022-08-19T08:30:48.537Z,34.41
2022-08-19T08:33:55.238Z,34.22
2022-08-19T08:36:59.154Z,34.08
2022-08-19T08:40:09.044Z,34.06
2022-08-19T08:43:27.765Z,33.76
2022-08-19T08:46:41.214Z,33.74
2022-08-19T08:49:54.300Z,33.63
2022-08-19T08:53:00.683Z,33.66
2022-08-19T08:56:06.915Z,33.75
2022-08-19T08:59:21.686Z,33.59
2022-08-19T09:02:25.793Z,33.62
2022-08-19T09:05:48.567Z,33.56
2022-08-19T09:09:04.181Z,33.55
2022-08-19T09:12:28.039Z,33.58
2022-08-19T09:15:41.322Z,33.49
2022-08-19T09:18:48.338Z,33.58
2022-08-19T09:21:52.861Z,33.63
2022-08-19T09:24:58.519Z,33.50
2022-08-19T09:28:05.705Z,33.55
2022-08-19T09:31:21.127Z,33.53
2022-08-19T09:34:26.050Z,33.48
2022-08-19T09:37:33.109Z,33.47
2022-08-19T09:40:38.581Z,33.53
2022-08-19T09:43:47.876Z,33.54
2022-08-19T09:46:54.132Z,33.46
2022-08-19T09:49:59.128Z,33.54
2022-08-19T09:53:03.331Z,33.55
2022-08-19T09:56:11.608Z,33.55
2022-08-19T09:59:15.327Z,33.51
2022-08-19T10:02:22.194Z,33.54
2022-08-19T10:05:44.407Z,33.59
2022-08-19T10:08:50.496Z,33.63
2022-08-19T10:11:55.213Z,33.74
2022-08-19T10:15:00.259Z,33.73
2022-08-19T10:18:08.054Z,33.79
2022-08-19T10:21:14.657Z,33.79
2022-08-19T10:24:19.917Z,33.80
2022-08-19T10:27:26.501Z,33.79
2022-08-19T10:30:31.350Z,33.84
2022-08-19T10:33:53.332Z,33.85
2022-08-19T10:37:00.902Z,33.92
2022-08-19T10:40:08.797Z,33.97
2022-08-19T10:43:13.338Z,33.94
2022-08-19T10:46:18.511Z,33.99
2022-08-19T10:49:25.347Z,34.02
2022-08-19T10:52:34.892Z,34.01
2022-08-19T10:56:00.514Z,34.03
2022-08-19T10:59:08.776Z,33.92
2022-08-19T11:02:14.687Z,33.99
2022-08-19T11:05:24.383Z,34.00
2022-08-19T11:08:28.728Z,34.05
2022-08-19T11:11:34.143Z,34.02
2022-08-19T11:14:43.244Z,34.04
2022-08-19T11:17:47.622Z,33.95
2022-08-19T11:20:53.231Z,34.01
2022-08-19T11:24:00.673Z,34.08
2022-08-19T11:27:07.131Z,34.10
2022-08-19T11:30:16.491Z,34.16
2022-08-19T11:33:20.637Z,34.22
2022-08-19T11:36:25.813Z,34.23
2022-08-19T11:39:31.862Z,34.38
2022-08-19T11:42:53.397Z,34.31
2022-08-19T11:45:58.102Z,34.35
2022-08-19T11:49:08.614Z,34.39
2022-08-19T11:52:16.687Z,34.42
2022-08-19T11:55:21.308Z,34.45
2022-08-19T11:58:28.329Z,34.44
2022-08-19T12:01:32.753Z,34.45
2022-08-19T12:04:37.192Z,34.47
2022-08-19T12:07:44.896Z,34.43
2022-08-19T12:10:49.099Z,34.46
2022-08-19T12:13:54.729Z,34.46
2022-08-19T12:16:58.763Z,34.56
2022-08-19T12:20:03.773Z,34.56
2022-08-19T12:23:11.455Z,34.52
2022-08-19T12:26:16.677Z,34.55
2022-08-19T12:29:23.611Z,34.56
2022-08-19T12:32:28.184Z,34.57
2022-08-19T12:35:33.481Z,34.60
2022-08-19T12:38:40.159Z,34.57
2022-08-19T12:41:51.537Z,34.46
2022-08-19T12:44:59.583Z,34.58
2022-08-19T12:48:33.876Z,34.54
2022-08-19T12:51:29.649Z,34.65
2022-08-19T12:54:35.056Z,34.77
2022-08-19T12:57:40.085Z,34.85
2022-08-19T13:00:44.005Z,34.84
2022-08-19T13:03:49.702Z,34.94
2022-08-19T13:06:54.656Z,35.02
2022-08-19T13:10:00.440Z,34.97
2022-08-19T13:13:08.040Z,35.01
2022-08-19T13:16:13.603Z,35.08
2022-08-19T13:19:17.431Z,35.03
2022-08-19T13:22:22.451Z,35.04
2022-08-19T13:25:27.953Z,34.96
2022-08-19T13:28:48.200Z,34.98
2022-08-19T13:32:09.785Z,34.84
2022-08-19T13:35:18.672Z,34.84
2022-08-19T13:38:23.842Z,34.73
2022-08-19T13:41:31.484Z,34.69
2022-08-19T13:44:35.367Z,34.68
2022-08-19T13:47:43.338Z,34.79
2022-08-19T13:50:50.610Z,34.82
2022-08-19T13:53:56.714Z,34.86
2022-08-19T13:57:02.204Z,34.79
2022-08-19T14:00:10.179Z,34.75
2022-08-19T14:03:14.132Z,34.75
2022-08-19T14:06:18.456Z,34.67
2022-08-19T14:09:22.131Z,34.72
2022-08-19T14:12:28.655Z,34.67
2022-08-19T14:15:33.268Z,34.68
2022-08-19T14:18:38.640Z,34.66
2022-08-19T14:21:42.566Z,34.65
2022-08-19T14:24:48.452Z,34.69
2022-08-19T14:27:54.751Z,34.62
2022-08-19T14:30:59.728Z,34.68
2022-08-19T14:34:03.648Z,34.71
2022-08-19T14:37:08.992Z,34.68
2022-08-19T14:40:21.704Z,34.62
2022-08-19T14:43:27.275Z,34.45
2022-08-19T14:46:31.848Z,34.31
2022-08-19T14:49:43.892Z,34.29
2022-08-19T14:52:52.837Z,34.14
2022-08-19T14:55:56.933Z,33.71
2022-08-19T14:59:02.590Z,33.70
2022-08-19T15:02:33.301Z,33.62
2022-08-19T15:05:30.893Z,33.40
2022-08-19T15:08:40.176Z,33.16
2022-08-19T15:11:50.796Z,33.18
2022-08-19T15:14:56.759Z,33.13
2022-08-19T15:18:03.577Z,33.05
2022-08-19T15:21:08.524Z,33.04
2022-08-19T15:24:12.652Z,32.97
2022-08-19T15:27:16.767Z,32.84
2022-08-19T15:30:24.857Z,32.79
2022-08-19T15:33:29.706Z,32.81
2022-08-19T15:36:36.292Z,32.68
2022-08-19T15:39:40.533Z,32.58
2022-08-19T15:42:45.268Z,32.45
2022-08-19T15:45:50.624Z,32.38
2022-08-19T15:48:59.661Z,32.24
2022-08-19T15:52:05.876Z,32.21
2022-08-19T15:55:10.139Z,32.00
2022-08-19T15:58:40.830Z,32.03
2022-08-19T16:02:03.264Z,32.10
2022-08-19T16:05:29.981Z,32.08
2022-08-19T16:08:33.691Z,32.17
2022-08-19T16:11:56.941Z,32.12
2022-08-19T16:15:03.708Z,32.17
2022-08-19T16:18:09.413Z,32.14
2022-08-19T16:21:14.746Z,32.16
2022-08-19T16:24:23.844Z,32.19
2022-08-19T16:27:30.900Z,31.61
2022-08-19T16:30:36.764Z,31.31
2022-08-19T16:33:43.416Z,30.82
2022-08-19T16:36:48.752Z,30.25
2022-08-19T16:39:53.245Z,30.12
2022-08-19T16:42:57.874Z,29.55
2022-08-19T16:46:02.677Z,29.55
2022-08-19T16:49:12.399Z,29.43
2022-08-19T16:52:16.506Z,29.47
2022-08-19T16:55:22.635Z,29.45
2022-08-19T16:58:29.717Z,29.42
2022-08-19T17:01:37.439Z,29.48
2022-08-19T17:04:43.384Z,29.55
2022-08-19T17:07:47.547Z,29.75
2022-08-19T17:11:17.037Z,29.76
2022-08-19T17:14:15.326Z,29.74
2022-08-19T17:17:19.360Z,29.81
2022-08-19T17:20:25.592Z,29.70
2022-08-19T17:23:42.485Z,29.59
2022-08-19T17:26:48.562Z,29.67
2022-08-19T17:29:53.204Z,29.63
2022-08-19T17:32:58.808Z,29.56
2022-08-19T17:36:07.051Z,29.66
2022-08-19T17:39:11.275Z,29.81
2022-08-19T17:42:15.170Z,29.84
2022-08-19T17:45:20.802Z,29.73
2022-08-19T17:48:25.435Z,29.65
2022-08-19T17:51:45.343Z,29.73
2022-08-19T17:54:49.145Z,29.73
2022-08-19T17:57:53.390Z,29.75
2022-08-19T18:00:59.784Z,29.69
2022-08-19T18:04:07.433Z,29.72
2022-08-19T18:07:12.638Z,29.79
2022-08-19T18:10:21.450Z,29.84
2022-08-19T18:13:25.072Z,29.88
2022-08-19T18:16:32.598Z,29.79
2022-08-19T18:19:42.743Z,29.58
2022-08-19T18:22:52.718Z,29.68
2022-08-19T18:25:56.369Z,29.34
2022-08-19T18:29:02.098Z,29.11
2022-08-19T18:32:13.067Z,29.23
2022-08-19T18:35:20.270Z,29.26
2022-08-19T18:38:42.930Z,29.07
2022-08-19T18:42:04.987Z,28.75
2022-08-19T18:45:27.184Z,28.36
2022-08-19T18:48:57.744Z,27.93
2022-08-19T18:52:03.328Z,27.96
2022-08-19T18:55:10.139Z,27.99
2022-08-19T18:58:14.222Z,28.06
2022-08-19T19:01:21.210Z,27.71
2022-08-19T19:04:28.157Z,27.99
2022-08-19T19:07:33.462Z,27.92
2022-08-19T19:10:38.794Z,27.57
2022-08-19T19:13:46.972Z,27.25
2022-08-19T19:16:52.109Z,27.55
2022-08-19T19:19:57.334Z,27.49
2022-08-19T19:23:01.401Z,27.65
2022-08-19T19:26:10.590Z,27.56
2022-08-19T19:29:15.441Z,27.55
2022-08-19T19:32:26.342Z,27.75
2022-08-19T19:35:32.720Z,27.55
2022-08-19T19:38:39.467Z,27.41
2022-08-19T19:41:45.342Z,27.54
2022-08-19T19:44:51.651Z,27.49
2022-08-19T19:47:57.061Z,27.49
2022-08-19T19:51:01.290Z,27.29
2022-08-19T19:54:06.214Z,27.46
2022-08-19T19:57:15.356Z,27.52
2022-08-19T20:00:19.738Z,27.54
2022-08-19T20:03:24.489Z,27.48
2022-08-19T20:06:29.269Z,27.45
2022-08-19T20:09:56.409Z,27.52
2022-08-19T20:12:57.195Z,27.45
2022-08-19T20:16:01.747Z,27.50
2022-08-19T20:19:07.240Z,27.53
2022-08-19T20:22:15.649Z,27.31
2022-08-19T20:25:24.744Z,27.28
2022-08-19T20:28:33.557Z,27.37
2022-08-19T20:31:37.938Z,26.71
2022-08-19T20:35:04.283Z,27.11
2022-08-19T20:38:09.045Z,27.15
2022-08-19T20:41:13.470Z,27.18
2022-08-19T20:44:18.824Z,27.07
2022-08-19T20:47:24.616Z,27.25
2022-08-19T20:50:30.159Z,27.14
2022-08-19T20:53:35.567Z,27.16
2022-08-19T20:56:39.316Z,26.84
2022-08-19T20:59:46.298Z,26.94
2022-08-19T21:02:50.654Z,27.11
2022-08-19T21:05:55.858Z,27.09
2022-08-19T21:08:59.480Z,27.01
2022-08-19T21:12:05.714Z,26.89
2022-08-19T21:15:12.237Z,27.02
2022-08-19T21:18:19.617Z,27.04
2022-08-19T21:21:25.829Z,27.19
2022-08-19T21:24:31.729Z,26.97
2022-08-19T21:27:35.567Z,26.87
2022-08-19T21:30:41.996Z,26.67
2022-08-19T21:33:46.464Z,26.88
2022-08-19T21:36:50.790Z,26.93
2022-08-19T21:39:55.211Z,26.87
2022-08-19T21:43:02.049Z,26.82
2022-08-19T21:46:09.205Z,26.85
2022-08-19T21:49:13.380Z,27.01
2022-08-19T21:52:23.741Z,26.52
2022-08-19T21:55:30.723Z,26.57
2022-08-19T21:58:36.545Z,26.78
2022-08-19T22:01:47.882Z,26.70
2022-08-19T22:04:54.898Z,26.76
2022-08-19T22:08:01.044Z,26.87
2022-08-19T22:11:05.668Z,26.48
2022-08-19T22:14:09.850Z,26.68
2022-08-19T22:17:15.903Z,26.30
2022-08-19T22:20:28.622Z,26.46
2022-08-19T22:23:32.307Z,26.45
2022-08-19T22:26:36.298Z,26.61
2022-08-19T22:29:40.203Z,26.70
2022-08-19T22:32:56.377Z,26.77
2022-08-19T22:36:00.825Z,26.78
2022-08-19T22:39:06.779Z,26.83
2022-08-19T22:42:11.670Z,26.74
2022-08-19T22:45:20.363Z,26.46
2022-08-19T22:48:32.762Z,26.69
2022-08-19T22:51:55.047Z,26.75
2022-08-19T22:55:05.084Z,26.82
2022-08-19T22:58:09.462Z,26.66
2022-08-19T23:01:27.640Z,26.34
2022-08-19T23:04:36.732Z,26.49
2022-08-19T23:07:40.565Z,26.39
2022-08-19T23:10:45.170Z,26.49
2022-08-19T23:13:48.982Z,26.12
2022-08-19T23:16:57.042Z,26.47
2022-08-19T23:20:09.556Z,26.53
2022-08-19T23:23:18.939Z,25.83
2022-08-19T23:26:24.598Z,26.08
2022-08-19T23:29:50.441Z,26.10
2022-08-19T23:32:55.485Z,26.25
2022-08-19T23:36:06.806Z,26.29
2022-08-19T23:39:11.019Z,26.39
2022-08-19T23:42:15.973Z,26.11
2022-08-19T23:45:23.706Z,26.26
2022-08-19T23:48:31.370Z,26.21
2022-08-19T23:51:39.086Z,25.93
2022-08-19T23:54:44.141Z,25.80
2022-08-19T23:57:52.533Z,25.94
